Time;durP1;ratioP1;P1;durP2;ratioP2;P2;SDS_P1;SDS_P2;PMS_P1;PMS_P2;Temp;Humidity;BMP_temperature;BMP_pressure;BME280_temperature;BME280_humidity;BME280_pressure;Samples;Min_cycle;Max_cycle;Signal;HPM_P1;HPM_P2
2023/06/15 00:02:21;;;;;;;4.90;4.30;;;;;;;14.95;75.15;100212.11;131495;1253;107432;-82
2023/06/15 00:05:27;;;;;;;6.50;4.80;;;;;;;14.96;75.25;100209.86;131562;1253;107676;-82
2023/06/15 00:08:32;;;;;;;6.10;5.00;;;;;;;14.98;75.16;100209.90;131609;1263;107484;-82
2023/06/15 00:11:38;;;;;;;5.70;4.70;;;;;;;15.00;75.29;100207.40;131649;1254;107492;-82
2023/06/15 00:14:43;;;;;;;5.40;4.70;;;;;;;15.00;75.34;100203.60;131490;1251;108389;-82
2023/06/15 00:17:49;;;;;;;7.10;5.00;;;;;;;15.00;75.31;100203.23;131281;1254;107320;-83
2023/06/15 00:20:55;;;;;;;6.80;4.90;;;;;;;14.97;75.38;100202.69;131466;1251;107490;-82
2023/06/15 00:24:00;;;;;;;5.40;4.60;;;;;;;14.94;75.39;100205.05;131276;1248;107361;-81
2023/06/15 00:27:07;;;;;;;8.20;5.10;;;;;;;14.90;75.49;100206.41;131329;1251;105688;-84
2023/06/15 00:30:14;;;;;;;5.90;5.20;;;;;;;14.82;75.64;100206.21;131487;1253;107448;-83
2023/06/15 00:33:19;;;;;;;6.70;4.90;;;;;;;14.82;75.78;100212.52;131503;1253;107504;-82
2023/06/15 00:36:25;;;;;;;6.50;5.40;;;;;;;14.82;75.85;100214.64;131420;1253;107472;-83
2023/06/15 00:39:30;;;;;;;6.50;5.30;;;;;;;14.80;75.81;100214.70;131486;1253;106632;-83
2023/06/15 00:42:36;;;;;;;7.60;5.60;;;;;;;14.80;76.09;100210.30;131477;1253;106784;-83
2023/06/15 00:45:44;;;;;;;6.40;5.10;;;;;;;14.76;76.14;100212.22;131350;1253;107648;-83
2023/06/15 00:48:49;;;;;;;6.00;4.60;;;;;;;14.72;76.15;100210.77;131201;1251;107235;-83
2023/06/15 00:51:55;;;;;;;6.40;4.50;;;;;;;14.70;76.42;100210.02;131444;1254;107563;-83
2023/06/15 00:55:03;;;;;;;7.20;5.00;;;;;;;14.72;76.50;100212.62;131384;1256;107526;-83
2023/06/15 00:58:09;;;;;;;6.40;5.10;;;;;;;14.76;76.51;100214.50;131491;1251;107321;-83
2023/06/15 01:01:15;;;;;;;7.10;4.80;;;;;;;14.77;76.33;100207.91;131235;1253;107398;-83
2023/06/15 01:04:24;;;;;;;5.20;4.50;;;;;;;14.79;76.55;100208.19;131352;1254;107511;-83
2023/06/15 01:07:30;;;;;;;7.40;5.60;;;;;;;14.81;76.54;100202.44;131203;1251;108731;-83
2023/06/15 01:10:37;;;;;;;5.90;4.50;;;;;;;14.81;76.58;100201.32;131201;1254;107548;-83
2023/06/15 01:13:45;;;;;;;5.60;4.10;;;;;;;14.79;76.57;100198.86;131329;1251;107480;-83
2023/06/15 01:16:55;;;;;;;5.40;4.80;;;;;;;14.81;76.69;100198.90;131278;1253;107615;-83
2023/06/15 01:20:09;;;;;;;6.50;5.00;;;;;;;14.81;76.72;100193.99;131270;1249;107491;-83
2023/06/15 01:23:41;;;;;;;5.80;5.20;;;;;;;14.80;76.84;100193.75;131282;1251;107363;-83
2023/06/15 01:26:49;;;;;;;5.50;4.90;;;;;;;14.78;76.88;100191.52;131329;1254;107191;-82
2023/06/15 01:29:57;;;;;;;6.00;4.80;;;;;;;14.78;77.06;100189.94;131309;1251;107530;-84
2023/06/15 01:33:03;;;;;;;7.30;4.30;;;;;;;14.77;77.06;100194.35;131351;1254;107366;-84
2023/06/15 01:36:09;;;;;;;6.10;4.30;;;;;;;14.74;77.04;100191.23;131339;1253;107554;-83
2023/06/15 01:39:14;;;;;;;6.60;4.70;;;;;;;14.74;77.08;100191.05;131173;1256;107544;-83
2023/06/15 01:42:21;;;;;;;6.80;5.80;;;;;;;14.78;77.20;100191.16;131287;1252;107439;-83
2023/06/15 01:45:29;;;;;;;5.40;4.80;;;;;;;14.79;77.35;100191.03;131471;1252;107325;-83
2023/06/15 01:48:34;;;;;;;6.60;5.30;;;;;;;14.80;77.47;100195.27;131487;1253;107530;-83
2023/06/15 01:51:41;;;;;;;6.50;5.60;;;;;;;14.78;77.31;100195.86;131392;1253;107520;-83
2023/06/15 01:54:48;;;;;;;7.50;4.70;;;;;;;14.74;77.44;100191.44;131497;1254;107502;-83
2023/06/15 01:57:55;;;;;;;5.70;4.20;;;;;;;14.73;77.58;100191.15;131429;1261;108104;-83
2023/06/15 02:01:01;;;;;;;6.40;5.40;;;;;;;14.75;77.43;100188.65;131329;1253;106548;-82
2023/06/15 02:04:07;;;;;;;6.80;5.40;;;;;;;14.78;77.43;100189.87;131264;1255;107455;-84
2023/06/15 02:07:13;;;;;;;6.40;5.50;;;;;;;14.81;77.49;100188.14;131224;1253;105561;-84
2023/06/15 02:10:18;;;;;;;6.30;5.60;;;;;;;14.78;77.45;100187.96;131370;1254;107373;-83
2023/06/15 02:13:24;;;;;;;6.00;5.30;;;;;;;14.74;77.63;100186.58;131247;1253;107553;-83
2023/06/15 02:16:30;;;;;;;5.10;4.60;;;;;;;14.72;77.72;100185.52;131233;1254;107466;-83
2023/06/15 02:19:35;;;;;;;5.40;4.70;;;;;;;14.73;77.87;100185.14;131396;1254;106092;-83
2023/06/15 02:22:41;;;;;;;6.10;5.40;;;;;;;14.75;77.93;100183.16;131204;1256;107529;-83
2023/06/15 02:25:46;;;;;;;5.90;5.00;;;;;;;14.76;77.93;100183.35;131302;1253;105985;-83
2023/06/15 02:28:52;;;;;;;6.30;5.20;;;;;;;14.78;78.09;100188.05;131321;1254;107607;-83
2023/06/15 02:31:57;;;;;;;6.30;5.60;;;;;;;14.80;77.96;100189.89;131453;1253;108152;-83
2023/06/15 02:35:04;;;;;;;5.90;5.30;;;;;;;14.78;78.03;100189.17;131354;1251;108127;-84
2023/06/15 02:38:10;;;;;;;6.40;5.30;;;;;;;14.77;78.09;100188.37;131414;1256;106056;-80
2023/06/15 02:41:16;;;;;;;5.00;4.50;;;;;;;14.79;78.26;100187.48;131384;1253;107518;-80
2023/06/15 02:44:22;;;;;;;6.90;5.30;;;;;;;14.79;78.41;100177.73;131275;1252;107506;-79
2023/06/15 02:47:28;;;;;;;6.00;5.30;;;;;;;14.81;78.36;100183.23;131220;1257;107484;-80
2023/06/15 02:50:33;;;;;;;6.80;5.20;;;;;;;14.85;78.38;100185.23;131410;1254;107428;-80
2023/06/15 02:53:51;;;;;;;7.60;5.70;;;;;;;14.90;78.52;100185.02;131254;1256;107433;-80
2023/06/15 02:56:57;;;;;;;7.00;5.90;;;;;;;14.90;78.69;100184.48;131451;1251;107505;-80
2023/06/15 03:00:09;;;;;;;5.90;5.20;;;;;;;14.88;78.53;100187.95;131210;1253;108080;-80
2023/06/15 03:03:27;;;;;;;7.30;4.90;;;;;;;14.89;78.70;100186.11;131242;1254;107460;-80
2023/06/15 03:06:34;;;;;;;8.20;5.60;;;;;;;14.93;78.71;100188.50;131175;1251;107231;-80
2023/06/15 03:09:41;;;;;;;7.30;5.20;;;;;;;14.97;78.83;100184.29;131184;1255;107495;-80
2023/06/15 03:12:47;;;;;;;7.70;6.10;;;;;;;15.01;78.80;100185.71;131252;1251;107431;-80
2023/06/15 03:15:52;;;;;;;7.80;6.00;;;;;;;15.04;78.73;100184.64;131108;1254;107522;-80
2023/06/15 03:19:00;;;;;;;8.60;6.20;;;;;;;15.07;78.85;100187.54;131107;1263;108670;-80
2023/06/15 03:22:09;;;;;;;6.30;5.10;;;;;;;15.08;78.89;100189.92;131240;1253;107505;-80
2023/06/15 03:25:15;;;;;;;6.10;5.50;;;;;;;15.10;78.91;100192.73;131257;1253;107593;-80
2023/06/15 03:28:24;;;;;;;7.20;5.20;;;;;;;15.12;78.97;100195.11;131318;1253;106527;-80
2023/06/15 03:31:33;;;;;;;8.00;5.80;;;;;;;15.16;78.91;100192.90;131472;1256;107509;-81
2023/06/15 03:34:40;;;;;;;8.20;6.10;;;;;;;15.17;78.96;100198.65;131412;1253;107512;-81
2023/06/15 03:37:45;;;;;;;8.90;6.20;;;;;;;15.19;79.04;100196.95;131267;1251;107598;-81
2023/06/15 03:40:51;;;;;;;9.50;6.30;;;;;;;15.19;79.33;100190.90;131211;1257;107255;-80
2023/06/15 03:43:57;;;;;;;7.60;6.80;;;;;;;15.06;79.46;100190.34;131580;1254;107592;-80
2023/06/15 03:47:02;;;;;;;8.10;6.90;;;;;;;14.96;79.73;100193.38;131376;1260;107825;-80
2023/06/15 03:50:11;;;;;;;8.00;7.10;;;;;;;14.90;80.15;100190.38;131451;1253;107453;-80
2023/06/15 03:53:17;;;;;;;8.40;7.00;;;;;;;14.86;80.13;100188.52;131284;1254;108678;-81
2023/06/15 03:56:22;;;;;;;8.90;7.40;;;;;;;14.94;80.23;100192.01;131505;1254;107390;-80
2023/06/15 03:59:28;;;;;;;11.10;7.20;;;;;;;15.04;80.26;100189.68;131229;1254;107565;-82
2023/06/15 04:02:34;;;;;;;6.40;5.60;;;;;;;15.10;80.21;100190.32;131333;1251;107464;-82
2023/06/15 04:05:40;;;;;;;7.20;5.60;;;;;;;15.14;80.15;100192.44;131153;1257;106144;-82
2023/06/15 04:08:46;;;;;;;6.90;6.20;;;;;;;15.17;80.18;100192.04;131494;1253;106556;-82
2023/06/15 04:11:52;;;;;;;9.60;6.70;;;;;;;15.23;80.24;100192.20;131364;1253;106086;-80
2023/06/15 04:14:58;;;;;;;7.60;6.80;;;;;;;15.28;80.11;100195.41;131336;1261;106730;-80
2023/06/15 04:18:05;;;;;;;8.70;6.80;;;;;;;15.32;80.27;100196.34;131258;1253;107496;-80
2023/06/15 04:21:11;;;;;;;9.20;7.40;;;;;;;15.36;80.19;100196.46;131349;1252;107498;-81
2023/06/15 04:24:16;;;;;;;8.40;6.90;;;;;;;15.37;80.24;100195.75;131358;1264;107211;-81
2023/06/15 04:27:23;;;;;;;8.50;6.50;;;;;;;15.37;80.41;100190.16;131294;1251;107535;-81
2023/06/15 04:30:30;;;;;;;7.40;6.60;;;;;;;15.45;80.46;100194.93;131568;1256;107696;-81
2023/06/15 04:33:42;;;;;;;8.40;7.20;;;;;;;15.52;80.38;100195.77;131331;1254;107260;-81
2023/06/15 04:36:48;;;;;;;9.20;7.50;;;;;;;15.58;80.38;100195.15;131214;1254;107461;-81
2023/06/15 04:39:56;;;;;;;10.20;7.30;;;;;;;15.66;80.49;100195.97;131189;1255;107493;-81
2023/06/15 04:43:02;;;;;;;8.40;7.30;;;;;;;15.72;80.38;100198.35;131265;1254;106794;-81
2023/06/15 04:46:11;;;;;;;8.20;7.00;;;;;;;15.76;80.46;100201.23;131313;1253;107407;-81
2023/06/15 04:49:17;;;;;;;10.10;7.20;;;;;;;15.80;80.61;100196.65;131408;1254;107404;-81
2023/06/15 04:52:23;;;;;;;10.40;7.20;;;;;;;15.87;80.45;100198.52;131629;1253;107486;-81
2023/06/15 04:55:30;;;;;;;9.50;8.20;;;;;;;15.90;80.30;100199.55;131269;1253;107450;-80
2023/06/15 04:58:35;;;;;;;9.90;7.80;;;;;;;15.89;80.50;100200.95;131366;1254;108161;-81
2023/06/15 05:01:41;;;;;;;9.30;8.10;;;;;;;15.90;80.55;100201.12;131417;1257;108642;-81
2023/06/15 05:04:57;;;;;;;9.20;8.20;;;;;;;15.88;80.54;100203.95;131498;1254;107382;-81
2023/06/15 05:08:04;;;;;;;9.40;7.60;;;;;;;15.94;80.87;100203.05;131320;1254;107514;-81
2023/06/15 05:11:10;;;;;;;10.30;9.00;;;;;;;16.07;80.76;100202.42;131272;1253;107561;-81
2023/06/15 05:14:16;;;;;;;11.10;9.70;;;;;;;16.16;80.74;100205.52;131371;1261;106425;-81
2023/06/15 05:17:21;;;;;;;14.80;10.80;;;;;;;16.18;81.14;100203.99;131313;1263;107543;-81
2023/06/15 05:20:28;;;;;;;12.70;10.60;;;;;;;16.14;81.28;100205.35;131260;1254;107529;-82
2023/06/15 05:23:34;;;;;;;14.10;11.20;;;;;;;16.13;81.36;100211.34;131278;1253;107531;-81
2023/06/15 05:26:39;;;;;;;12.60;10.70;;;;;;;16.11;81.52;100208.48;131227;1254;107380;-81
2023/06/15 05:29:49;;;;;;;13.70;10.80;;;;;;;16.04;81.75;100213.29;131258;1261;107519;-81
2023/06/15 05:32:54;;;;;;;14.10;11.40;;;;;;;15.99;81.60;100218.81;131226;1261;107533;-81
2023/06/15 05:36:00;;;;;;;12.90;11.60;;;;;;;15.98;81.62;100220.41;131230;1251;107526;-81
2023/06/15 05:39:07;;;;;;;12.60;11.30;;;;;;;15.92;82.00;100222.50;131278;1253;107554;-81
2023/06/15 05:42:14;;;;;;;13.70;12.30;;;;;;;15.87;82.22;100227.04;131230;1254;107676;-81
2023/06/15 05:45:24;;;;;;;13.10;11.70;;;;;;;15.93;82.26;100229.85;131215;1253;107443;-81
2023/06/15 05:48:30;;;;;;;14.00;10.50;;;;;;;16.06;82.05;100232.21;131292;1254;108013;-81
2023/06/15 05:51:35;;;;;;;14.70;11.70;;;;;;;16.21;81.78;100237.73;131210;1254;107365;-81
2023/06/15 05:54:42;;;;;;;13.60;11.70;;;;;;;16.32;81.74;100238.69;131210;1255;107489;-81
2023/06/15 05:57:48;;;;;;;12.00;10.70;;;;;;;16.42;81.85;100238.70;131422;1254;107610;-81
2023/06/15 06:00:53;;;;;;;13.10;11.70;;;;;;;16.60;81.87;100238.84;131438;1256;107514;-81
2023/06/15 06:03:59;;;;;;;12.10;10.80;;;;;;;16.75;81.57;100242.79;131376;1253;106509;-81
2023/06/15 06:07:06;;;;;;;10.60;9.50;;;;;;;16.90;81.32;100242.61;131382;1255;107497;-80
2023/06/15 06:10:13;;;;;;;13.50;10.90;;;;;;;17.04;81.02;100242.48;131253;1255;107581;-81
2023/06/15 06:13:20;;;;;;;12.50;10.20;;;;;;;17.14;80.90;100243.84;131565;1254;107624;-81
2023/06/15 06:16:25;;;;;;;11.80;10.40;;;;;;;17.23;81.36;100243.66;131297;1253;107223;-81
2023/06/15 06:19:31;;;;;;;11.40;10.30;;;;;;;17.36;81.08;100243.90;131356;1264;107630;-81
2023/06/15 06:22:37;;;;;;;11.90;10.60;;;;;;;17.46;81.20;100242.59;131359;1254;107484;-81
2023/06/15 06:25:43;;;;;;;11.90;10.50;;;;;;;17.54;80.93;100244.59;131252;1261;107344;-81
2023/06/15 06:28:49;;;;;;;11.50;10.30;;;;;;;17.59;80.70;100246.65;131401;1264;107652;-81
2023/06/15 06:31:55;;;;;;;12.10;10.80;;;;;;;17.70;80.93;100246.54;131366;1261;107544;-81
2023/06/15 06:35:00;;;;;;;12.90;11.30;;;;;;;17.84;80.95;100243.88;131334;1254;107439;-81
2023/06/15 06:38:06;;;;;;;11.70;10.50;;;;;;;17.98;80.58;100244.29;131219;1253;107457;-81
2023/06/15 06:41:11;;;;;;;12.60;11.10;;;;;;;18.13;80.37;100243.30;131269;1253;108760;-80
2023/06/15 06:44:18;;;;;;;12.70;11.40;;;;;;;18.18;80.03;100244.73;131533;1253;107337;-80
2023/06/15 06:47:24;;;;;;;11.50;10.40;;;;;;;18.17;79.90;100243.80;131438;1254;107510;-81
2023/06/15 06:50:30;;;;;;;11.20;10.00;;;;;;;18.21;79.82;100241.33;131500;1251;107517;-81
2023/06/15 06:53:35;;;;;;;10.90;9.80;;;;;;;18.24;79.63;100239.89;131499;1261;107511;-81
2023/06/15 06:56:41;;;;;;;11.50;10.10;;;;;;;18.36;79.82;100235.84;131418;1253;107513;-81
2023/06/15 06:59:46;;;;;;;10.30;9.00;;;;;;;18.46;79.22;100228.29;131470;1251;107294;-81
2023/06/15 07:02:52;;;;;;;9.40;8.50;;;;;;;18.60;79.38;100231.63;131483;1261;107331;-81
2023/06/15 07:05:58;;;;;;;7.70;7.00;;;;;;;18.76;79.25;100233.40;131436;1253;107508;-81
2023/06/15 07:09:04;;;;;;;7.10;6.20;;;;;;;18.92;78.77;100230.03;131437;1261;107527;-81
2023/06/15 07:12:11;;;;;;;5.90;5.30;;;;;;;19.00;78.87;100228.18;131479;1253;106417;-82
2023/06/15 07:15:17;;;;;;;6.20;5.60;;;;;;;19.08;78.84;100226.84;131362;1255;107556;-81
2023/06/15 07:18:22;;;;;;;5.70;5.20;;;;;;;19.14;78.52;100227.63;131311;1251;107260;-82
2023/06/15 07:21:28;;;;;;;5.90;5.30;;;;;;;19.21;78.34;100229.66;131261;1251;107531;-82
2023/06/15 07:24:35;;;;;;;5.10;4.60;;;;;;;19.25;77.84;100226.65;131449;1251;107239;-82
2023/06/15 07:27:41;;;;;;;5.20;4.60;;;;;;;19.33;77.90;100228.59;131585;1251;107243;-82
2023/06/15 07:30:49;;;;;;;5.20;4.70;;;;;;;19.44;77.89;100225.41;131524;1249;107516;-80
2023/06/15 07:33:56;;;;;;;5.20;4.70;;;;;;;19.57;77.49;100229.58;131321;1263;106510;-81
2023/06/15 07:37:02;;;;;;;5.60;5.10;;;;;;;19.64;77.37;100230.90;131259;1261;107339;-81
2023/06/15 07:40:10;;;;;;;5.40;4.90;;;;;;;19.67;77.29;100231.70;131238;1254;107516;-81
2023/06/15 07:43:15;;;;;;;4.80;4.30;;;;;;;19.72;76.79;100231.20;131303;1254;107189;-80
2023/06/15 07:46:21;;;;;;;5.50;5.00;;;;;;;19.79;76.91;100235.98;131313;1251;108125;-81
2023/06/15 07:49:26;;;;;;;4.80;4.40;;;;;;;19.92;76.58;100234.68;131304;1253;107352;-81
2023/06/15 07:52:32;;;;;;;4.80;4.30;;;;;;;20.01;75.81;100234.91;131321;1249;107536;-80
2023/06/15 07:55:37;;;;;;;4.60;4.20;;;;;;;20.04;75.86;100232.63;131353;1254;108188;-81
2023/06/15 07:58:43;;;;;;;4.90;4.20;;;;;;;20.20;75.36;100234.05;131517;1257;107496;-81
2023/06/15 08:01:49;;;;;;;4.80;4.40;;;;;;;20.26;74.19;100236.85;131251;1253;107430;-81
2023/06/15 08:04:54;;;;;;;4.50;4.10;;;;;;;20.06;72.30;100236.16;131348;1255;107587;-80
2023/06/15 08:07:59;;;;;;;4.90;4.50;;;;;;;19.94;74.27;100235.71;131533;1251;107517;-81
2023/06/15 08:11:05;;;;;;;9.30;7.30;;;;;;;19.91;74.37;100240.57;131570;1251;108671;-81
2023/06/15 08:14:11;;;;;;;6.00;4.80;;;;;;;19.82;74.31;100241.78;131374;1254;108738;-81
2023/06/15 08:17:16;;;;;;;3.50;3.20;;;;;;;19.70;74.44;100241.59;131381;1251;107216;-81
2023/06/15 08:20:22;;;;;;;3.30;2.70;;;;;;;19.50;74.39;100240.80;131356;1254;107531;-81
2023/06/15 08:23:27;;;;;;;3.00;2.80;;;;;;;19.34;74.54;100240.91;131387;1254;107515;-81
2023/06/15 08:26:33;;;;;;;4.00;3.00;;;;;;;19.20;74.47;100244.80;131356;1254;107524;-81
2023/06/15 08:29:38;;;;;;;4.20;2.90;;;;;;;19.11;74.62;100246.97;131574;1254;107516;-81
2023/06/15 08:32:44;;;;;;;3.10;2.70;;;;;;;19.00;74.48;100250.65;131471;1261;106821;-81
2023/06/15 08:35:50;;;;;;;3.80;3.10;;;;;;;18.93;74.34;100252.48;131451;1253;107491;-81
2023/06/15 08:38:55;;;;;;;3.40;2.80;;;;;;;18.90;74.08;100256.34;131422;1254;107534;-81
2023/06/15 08:42:01;;;;;;;3.00;2.70;;;;;;;18.85;74.03;100256.64;131371;1252;105667;-81
2023/06/15 08:45:08;;;;;;;2.90;2.60;;;;;;;18.80;73.70;100256.21;131467;1254;106026;-81
2023/06/15 08:48:18;;;;;;;3.00;2.70;;;;;;;18.70;73.64;100258.05;131520;1253;105588;-81
2023/06/15 08:51:24;;;;;;;3.00;2.40;;;;;;;18.60;73.92;100260.33;131380;1254;107296;-80
2023/06/15 08:54:31;;;;;;;3.00;2.20;;;;;;;18.52;74.12;100257.61;131401;1253;106091;-81
2023/06/15 08:57:37;;;;;;;2.60;2.30;;;;;;;18.46;74.16;100261.92;131586;1249;107245;-81
2023/06/15 09:00:43;;;;;;;3.30;2.50;;;;;;;18.44;74.39;100261.88;131276;1254;107640;-81
2023/06/15 09:03:50;;;;;;;2.70;2.50;;;;;;;18.50;74.21;100261.48;131256;1251;107228;-80
2023/06/15 09:07:00;;;;;;;3.50;2.60;;;;;;;18.53;74.11;100259.10;131382;1253;108651;-80
2023/06/15 09:10:19;;;;;;;3.10;2.50;;;;;;;18.58;74.12;100260.29;131247;1253;107604;-80
2023/06/15 09:13:25;;;;;;;3.50;2.70;;;;;;;18.72;74.11;100259.17;131353;1251;107655;-81
2023/06/15 09:16:32;;;;;;;3.90;3.40;;;;;;;18.72;73.19;100260.71;131452;1253;106685;-80
2023/06/15 09:19:39;;;;;;;3.80;3.30;;;;;;;18.43;72.86;100262.66;131365;1253;107628;-82
2023/06/15 09:22:45;;;;;;;3.60;3.30;;;;;;;18.31;73.92;100260.47;131278;1253;107236;-81
2023/06/15 09:25:54;;;;;;;3.30;3.00;;;;;;;18.30;73.99;100263.03;131260;1255;107523;-81
2023/06/15 09:29:02;;;;;;;3.20;2.50;;;;;;;18.35;73.39;100263.42;131351;1254;108375;-80
2023/06/15 09:32:08;;;;;;;3.50;2.90;;;;;;;18.46;73.73;100260.09;131353;1261;107592;-80
2023/06/15 09:35:14;;;;;;;2.50;2.30;;;;;;;18.78;73.49;100257.11;131303;1249;108214;-80
2023/06/15 09:38:20;;;;;;;2.40;2.20;;;;;;;19.23;73.10;100253.38;131313;1254;106522;-80
2023/06/15 09:41:26;;;;;;;2.30;2.10;;;;;;;19.70;72.69;100254.20;131486;1253;106497;-80
2023/06/15 09:44:33;;;;;;;2.30;2.10;;;;;;;20.14;72.35;100255.08;131503;1254;107502;-80
2023/06/15 09:47:39;;;;;;;2.20;1.80;;;;;;;20.41;71.42;100252.73;131170;1249;107467;-80
2023/06/15 09:50:49;;;;;;;2.40;1.90;;;;;;;20.64;71.35;100246.55;131259;1253;106797;-81
2023/06/15 09:53:56;;;;;;;2.10;1.90;;;;;;;20.81;69.32;100247.90;131233;1253;106281;-80
2023/06/15 09:57:02;;;;;;;2.40;2.00;;;;;;;20.93;68.73;100244.71;131184;1254;107345;-80
2023/06/15 10:00:12;;;;;;;2.50;1.80;;;;;;;21.04;69.76;100245.15;131520;1251;107370;-80
2023/06/15 10:03:20;;;;;;;2.90;1.90;;;;;;;21.36;68.26;100242.34;131344;1252;105863;-80
2023/06/15 10:06:27;;;;;;;1.90;1.70;;;;;;;21.39;66.01;100239.11;131332;1254;107603;-80
2023/06/15 10:09:39;;;;;;;1.90;1.80;;;;;;;21.47;67.87;100238.23;131297;1254;107501;-80
2023/06/15 10:12:52;;;;;;;2.00;1.60;;;;;;;21.73;67.85;100233.08;131590;1253;107410;-80
2023/06/15 10:16:01;;;;;;;1.60;1.50;;;;;;;22.01;67.01;100230.39;131492;1255;108557;-80
2023/06/15 10:19:10;;;;;;;1.70;1.60;;;;;;;22.11;65.15;100224.06;131591;1250;107665;-80
2023/06/15 10:22:19;;;;;;;2.00;1.80;;;;;;;22.05;64.99;100228.02;131480;1262;107449;-80
2023/06/15 10:25:27;;;;;;;3.10;2.50;;;;;;;22.25;66.08;100223.64;131192;1253;107546;-80
2023/06/15 10:28:36;;;;;;;2.70;2.50;;;;;;;22.48;65.77;100223.70;131515;1253;107408;-80
2023/06/15 10:31:48;;;;;;;2.70;2.40;;;;;;;22.60;65.65;100221.14;131332;1252;107423;-81
2023/06/15 10:34:59;;;;;;;2.50;2.20;;;;;;;22.80;64.69;100216.17;131306;1253;107408;-80
2023/06/15 10:38:09;;;;;;;;;;;;;;;22.84;64.10;100213.11;131503;1251;107533;-80
2023/06/15 10:41:15;;;;;;;3.10;2.60;;;;;;;22.81;64.20;100211.59;131537;1261;106572;-82
2023/06/15 10:44:21;;;;;;;3.10;2.80;;;;;;;22.80;64.23;100210.39;131296;1253;107511;-80
2023/06/15 10:47:26;;;;;;;3.20;2.90;;;;;;;22.81;63.53;100204.89;131295;1252;107220;-80
2023/06/15 10:50:48;;;;;;;3.70;3.00;;;;;;;22.75;63.15;100203.07;131431;1249;107553;-80
2023/06/15 10:53:54;;;;;;;3.60;3.30;;;;;;;22.66;61.82;100201.58;131547;1261;107422;-80
2023/06/15 10:57:00;;;;;;;4.50;3.50;;;;;;;22.41;62.24;100197.95;131493;1253;107497;-80
2023/06/15 11:00:08;;;;;;;4.40;4.00;;;;;;;22.17;62.29;100201.49;131511;1253;106467;-80
2023/06/15 11:03:32;;;;;;;4.40;4.00;;;;;;;22.09;62.96;100194.88;131349;1253;107438;-80
2023/06/15 11:06:38;;;;;;;5.10;4.30;;;;;;;22.12;62.38;100200.18;131350;1249;107501;-79
2023/06/15 11:09:45;;;;;;;5.10;4.60;;;;;;;22.10;62.66;100200.59;131301;1254;107330;-80
2023/06/15 11:13:03;;;;;;;4.90;4.40;;;;;;;22.12;62.42;100199.47;131342;1254;107589;-82
2023/06/15 11:16:10;;;;;;;5.80;5.10;;;;;;;22.05;61.88;100193.34;131378;1253;107515;-79
2023/06/15 11:19:25;;;;;;;4.90;4.40;;;;;;;21.96;61.87;100193.96;131423;1251;107549;-80
2023/06/15 11:22:32;;;;;;;6.00;4.90;;;;;;;21.92;61.73;100196.86;131472;1251;108634;-80
2023/06/15 11:25:38;;;;;;;5.40;4.90;;;;;;;22.01;61.59;100193.35;131413;1252;107643;-80
2023/06/15 11:28:45;;;;;;;6.10;5.50;;;;;;;22.08;61.75;100190.08;131248;1253;107492;-80
2023/06/15 11:31:51;;;;;;;5.20;4.70;;;;;;;22.10;61.79;100192.67;131283;1254;107344;-80
2023/06/15 11:35:03;;;;;;;6.10;5.00;;;;;;;22.13;61.59;100192.27;131450;1253;107204;-78
2023/06/15 11:38:09;;;;;;;8.00;5.60;;;;;;;22.15;61.45;100188.42;131328;1253;106495;-80
2023/06/15 11:41:15;;;;;;;6.90;5.20;;;;;;;22.22;61.07;100186.63;131195;1253;107464;-80
2023/06/15 11:44:22;;;;;;;6.10;5.50;;;;;;;22.32;61.13;100178.64;131291;1251;106666;-80
2023/06/15 11:47:27;;;;;;;6.80;5.90;;;;;;;22.38;60.07;100183.16;131207;1253;107440;-80
2023/06/15 11:50:33;;;;;;;6.40;5.80;;;;;;;22.41;60.42;100180.47;131162;1254;107524;-80
2023/06/15 11:53:39;;;;;;;6.00;5.40;;;;;;;22.64;60.20;100185.33;131365;1253;107339;-81
2023/06/15 11:56:48;;;;;;;6.10;5.10;;;;;;;22.81;59.42;100181.91;131480;1251;107538;-79
2023/06/15 11:59:54;;;;;;;5.90;4.90;;;;;;;22.97;59.92;100180.29;131558;1253;107310;-80
2023/06/15 12:03:00;;;;;;;6.60;6.00;;;;;;;23.19;58.60;100175.42;131449;1253;107498;-79
2023/06/15 12:06:06;;;;;;;7.60;5.40;;;;;;;23.29;59.04;100177.01;131294;1254;107670;-80
2023/06/15 12:09:13;;;;;;;5.50;4.90;;;;;;;23.40;58.01;100172.83;131207;1249;107482;-79
2023/06/15 12:12:31;;;;;;;6.90;6.00;;;;;;;23.39;57.91;100169.77;131267;1250;107426;-80
2023/06/15 12:15:40;;;;;;;7.30;5.50;;;;;;;23.33;58.06;100167.24;131289;1254;107512;-80
2023/06/15 12:18:53;;;;;;;6.60;5.00;;;;;;;23.18;56.79;100165.87;131335;1253;107380;-80
2023/06/15 12:22:02;;;;;;;6.00;5.40;;;;;;;23.14;56.66;100162.89;131336;1253;107541;-80
2023/06/15 12:25:08;;;;;;;7.10;5.60;;;;;;;23.05;57.23;100158.52;131496;1251;107645;-80
2023/06/15 12:28:18;;;;;;;6.10;5.40;;;;;;;23.05;55.82;100158.61;131251;1253;107589;-79
2023/06/15 12:31:31;;;;;;;6.10;4.90;;;;;;;22.92;55.73;100156.39;131392;1250;106561;-79
2023/06/15 12:34:42;;;;;;;5.60;5.10;;;;;;;22.91;56.43;100157.35;131198;1253;107530;-81
2023/06/15 12:37:49;;;;;;;6.70;5.30;;;;;;;22.92;53.32;100147.26;131271;1254;107470;-80
2023/06/15 12:40:56;;;;;;;5.80;5.00;;;;;;;22.86;55.40;100149.84;131335;1251;107357;-80
2023/06/15 12:44:01;;;;;;;6.00;5.40;;;;;;;22.99;55.65;100147.77;131241;1248;107611;-80
2023/06/15 12:47:08;;;;;;;5.50;5.00;;;;;;;23.08;55.27;100144.64;131275;1260;107430;-80
2023/06/15 12:50:14;;;;;;;5.00;4.50;;;;;;;23.10;55.00;100139.26;131236;1254;107411;-80
2023/06/15 12:53:20;;;;;;;4.50;4.10;;;;;;;23.03;55.18;100139.51;131295;1250;107534;-79
2023/06/15 12:56:27;;;;;;;11.30;5.10;;;;;;;23.08;55.23;100130.61;131368;1250;106247;-82
2023/06/15 12:59:32;;;;;;;6.10;4.80;;;;;;;23.23;55.35;100131.80;131331;1254;107622;-81
2023/06/15 13:02:39;;;;;;;5.50;4.80;;;;;;;23.39;54.94;100128.86;131444;1253;107616;-82
2023/06/15 13:05:45;;;;;;;6.00;5.40;;;;;;;23.51;54.81;100119.45;131283;1254;107576;-82
2023/06/15 13:08:51;;;;;;;7.00;5.10;;;;;;;23.49;52.92;100119.74;131236;1253;107534;-79
2023/06/15 13:11:56;;;;;;;5.10;4.70;;;;;;;23.35;54.19;100119.63;131171;1261;107267;-79
2023/06/15 13:15:02;;;;;;;6.20;5.60;;;;;;;23.44;54.48;100114.81;131174;1251;109270;-80
2023/06/15 13:18:08;;;;;;;5.50;5.00;;;;;;;23.46;54.26;100110.02;131173;1253;106756;-79
2023/06/15 13:21:13;;;;;;;6.80;5.80;;;;;;;23.47;53.61;100114.64;131241;1251;107481;-79
2023/06/15 13:24:20;;;;;;;6.40;5.00;;;;;;;23.22;52.70;100113.64;131171;1254;105975;-80
2023/06/15 13:27:25;;;;;;;6.10;5.50;;;;;;;23.19;54.19;100112.70;131383;1250;106361;-79
2023/06/15 13:30:31;;;;;;;5.90;5.30;;;;;;;23.27;53.95;100109.70;131344;1253;108677;-79
2023/06/15 13:33:38;;;;;;;6.20;5.10;;;;;;;23.32;53.83;100108.63;131105;1253;107587;-79
2023/06/15 13:36:44;;;;;;;6.90;5.40;;;;;;;23.44;53.79;100106.95;131231;1253;107347;-79
2023/06/15 13:39:49;;;;;;;5.90;5.10;;;;;;;23.42;52.47;100104.63;131381;1251;107539;-79
2023/06/15 13:42:55;;;;;;;6.00;5.30;;;;;;;23.37;53.08;100109.48;131427;1264;107536;-79
2023/06/15 13:46:01;;;;;;;6.00;5.40;;;;;;;23.40;53.46;100108.52;131497;1253;108713;-79
2023/06/15 13:49:08;;;;;;;6.10;5.40;;;;;;;23.42;53.51;100104.24;131387;1250;107243;-79
2023/06/15 13:52:13;;;;;;;5.90;4.90;;;;;;;23.38;53.38;100102.14;131494;1253;108622;-79
2023/06/15 13:55:19;;;;;;;5.70;4.90;;;;;;;23.34;53.32;100097.45;131403;1252;107504;-79
2023/06/15 13:58:25;;;;;;;6.70;5.40;;;;;;;23.22;52.19;100103.36;131234;1254;107185;-79
2023/06/15 14:01:31;;;;;;;6.30;5.70;;;;;;;22.87;51.95;100100.17;131172;1252;107526;-79
2023/06/15 14:04:37;;;;;;;5.40;4.90;;;;;;;22.58;52.70;100104.80;131475;1253;107238;-81
2023/06/15 14:07:43;;;;;;;5.10;4.70;;;;;;;22.43;53.20;100104.27;131363;1253;119783;-82